sensor_id;sensor_type;location;lat;lon;timestamp;P1;P2;P0
69224;PMS1003;56333;51.306;17.056;2023-04-15T00:01:01;12.40;9.00;
69224;PMS1003;56333;51.306;17.056;2023-04-15T00:02:31;13.40;8.40;
69224;PMS1003;56333;51.306;17.056;2023-04-15T00:04:00;14.30;9.20;
69224;PMS1003;56333;51.306;17.056;2023-04-15T00:05:30;12.80;9.30;
69224;PMS1003;56333;51.306;17.056;2023-04-15T00:06:59;12.80;9.80;
69224;PMS1003;56333;51.306;17.056;2023-04-15T00:08:29;14.40;9.50;
69224;PMS1003;56333;51.306;17.056;2023-04-15T00:09:59;13.80;9.40;
69224;PMS1003;56333;51.306;17.056;2023-04-15T00:11:29;14.50;9.60;
69224;PMS1003;56333;51.306;17.056;2023-04-15T00:12:58;13.30;9.20;
69224;PMS1003;56333;51.306;17.056;2023-04-15T00:14:28;14.30;9.50;
69224;PMS1003;56333;51.306;17.056;2023-04-15T00:15:57;15.10;10.00;
69224;PMS1003;56333;51.306;17.056;2023-04-15T00:17:26;13.40;9.20;
69224;PMS1003;56333;51.306;17.056;2023-04-15T00:18:56;11.80;8.80;
69224;PMS1003;56333;51.306;17.056;2023-04-15T00:20:25;12.00;8.80;
69224;PMS1003;56333;51.306;17.056;2023-04-15T00:21:54;12.10;8.50;
69224;PMS1003;56333;51.306;17.056;2023-04-15T00:23:24;11.60;8.60;
69224;PMS1003;56333;51.306;17.056;2023-04-15T00:24:54;14.40;9.30;
69224;PMS1003;56333;51.306;17.056;2023-04-15T00:26:23;12.00;9.60;
69224;PMS1003;56333;51.306;17.056;2023-04-15T00:27:53;16.00;9.70;
69224;PMS1003;56333;51.306;17.056;2023-04-15T00:29:22;13.70;9.50;
69224;PMS1003;56333;51.306;17.056;2023-04-15T00:30:51;13.40;9.10;
69224;PMS1003;56333;51.306;17.056;2023-04-15T00:32:20;12.20;8.70;
69224;PMS1003;56333;51.306;17.056;2023-04-15T00:33:49;12.90;8.70;
69224;PMS1003;56333;51.306;17.056;2023-04-15T00:35:18;13.90;9.20;
69224;PMS1003;56333;51.306;17.056;2023-04-15T00:36:50;12.40;9.50;
69224;PMS1003;56333;51.306;17.056;2023-04-15T00:38:19;13.90;9.40;
69224;PMS1003;56333;51.306;17.056;2023-04-15T00:39:49;12.40;8.90;
69224;PMS1003;56333;51.306;17.056;2023-04-15T00:41:18;12.00;9.20;
69224;PMS1003;56333;51.306;17.056;2023-04-15T00:42:47;15.00;9.60;
69224;PMS1003;56333;51.306;17.056;2023-04-15T00:44:18;12.00;9.50;
69224;PMS1003;56333;51.306;17.056;2023-04-15T00:45:47;15.10;10.10;
69224;PMS1003;56333;51.306;17.056;2023-04-15T00:47:16;13.80;10.10;
69224;PMS1003;56333;51.306;17.056;2023-04-15T00:48:47;13.90;9.20;
69224;PMS1003;56333;51.306;17.056;2023-04-15T00:50:16;13.90;9.60;
69224;PMS1003;56333;51.306;17.056;2023-04-15T00:51:45;13.20;9.20;
69224;PMS1003;56333;51.306;17.056;2023-04-15T00:53:14;16.80;9.40;
69224;PMS1003;56333;51.306;17.056;2023-04-15T00:54:43;16.20;10.00;
69224;PMS1003;56333;51.306;17.056;2023-04-15T00:56:12;13.30;9.10;
69224;PMS1003;56333;51.306;17.056;2023-04-15T00:57:41;14.00;9.50;
69224;PMS1003;56333;51.306;17.056;2023-04-15T00:59:10;16.50;9.30;
69224;PMS1003;56333;51.306;17.056;2023-04-15T01:00:40;14.00;9.50;
69224;PMS1003;56333;51.306;17.056;2023-04-15T01:02:10;12.60;9.50;
69224;PMS1003;56333;51.306;17.056;2023-04-15T01:03:40;14.20;9.30;
69224;PMS1003;56333;51.306;17.056;2023-04-15T01:05:10;14.70;10.20;
69224;PMS1003;56333;51.306;17.056;2023-04-15T01:06:42;13.70;9.90;
69224;PMS1003;56333;51.306;17.056;2023-04-15T01:08:10;16.40;9.70;
69224;PMS1003;56333;51.306;17.056;2023-04-15T01:09:40;14.20;9.40;
69224;PMS1003;56333;51.306;17.056;2023-04-15T01:11:11;14.30;9.70;
69224;PMS1003;56333;51.306;17.056;2023-04-15T01:12:40;12.10;8.70;
69224;PMS1003;56333;51.306;17.056;2023-04-15T01:14:10;15.00;10.10;
69224;PMS1003;56333;51.306;17.056;2023-04-15T01:15:39;12.60;9.30;
69224;PMS1003;56333;51.306;17.056;2023-04-15T01:17:09;12.90;9.00;
69224;PMS1003;56333;51.306;17.056;2023-04-15T01:18:39;14.50;9.10;
69224;PMS1003;56333;51.306;17.056;2023-04-15T01:20:11;12.60;9.60;
69224;PMS1003;56333;51.306;17.056;2023-04-15T01:21:41;15.30;9.90;
69224;PMS1003;56333;51.306;17.056;2023-04-15T01:23:10;16.60;14.20;
69224;PMS1003;56333;51.306;17.056;2023-04-15T01:24:39;12.70;9.40;
69224;PMS1003;56333;51.306;17.056;2023-04-15T01:26:08;13.00;9.90;
69224;PMS1003;56333;51.306;17.056;2023-04-15T01:27:39;13.90;9.60;
69224;PMS1003;56333;51.306;17.056;2023-04-15T01:29:08;13.90;9.30;
69224;PMS1003;56333;51.306;17.056;2023-04-15T01:30:38;13.30;9.20;
69224;PMS1003;56333;51.306;17.056;2023-04-15T01:32:08;11.90;9.30;
69224;PMS1003;56333;51.306;17.056;2023-04-15T01:33:37;15.10;10.40;
69224;PMS1003;56333;51.306;17.056;2023-04-15T01:35:07;10.20;8.60;
69224;PMS1003;56333;51.306;17.056;2023-04-15T01:36:36;13.60;9.90;
69224;PMS1003;56333;51.306;17.056;2023-04-15T01:38:08;16.50;9.80;
69224;PMS1003;56333;51.306;17.056;2023-04-15T01:39:38;15.40;10.00;
69224;PMS1003;56333;51.306;17.056;2023-04-15T01:41:07;14.00;9.60;
69224;PMS1003;56333;51.306;17.056;2023-04-15T01:42:38;14.70;10.10;
69224;PMS1003;56333;51.306;17.056;2023-04-15T01:44:08;12.50;9.30;
69224;PMS1003;56333;51.306;17.056;2023-04-15T01:47:06;13.40;9.80;
69224;PMS1003;56333;51.306;17.056;2023-04-15T01:48:36;14.40;10.70;
69224;PMS1003;56333;51.306;17.056;2023-04-15T01:50:06;13.60;10.30;
69224;PMS1003;56333;51.306;17.056;2023-04-15T01:51:36;15.90;10.50;
69224;PMS1003;56333;51.306;17.056;2023-04-15T01:53:05;14.50;10.20;
69224;PMS1003;56333;51.306;17.056;2023-04-15T01:54:34;13.10;9.40;
69224;PMS1003;56333;51.306;17.056;2023-04-15T01:56:04;16.30;10.10;
69224;PMS1003;56333;51.306;17.056;2023-04-15T01:57:34;13.90;10.00;
69224;PMS1003;56333;51.306;17.056;2023-04-15T01:59:03;13.90;9.90;
69224;PMS1003;56333;51.306;17.056;2023-04-15T02:00:32;13.70;10.10;
69224;PMS1003;56333;51.306;17.056;2023-04-15T02:02:01;13.50;9.80;
69224;PMS1003;56333;51.306;17.056;2023-04-15T02:03:30;13.20;9.40;
69224;PMS1003;56333;51.306;17.056;2023-04-15T02:04:59;13.80;9.50;
69224;PMS1003;56333;51.306;17.056;2023-04-15T02:06:30;13.80;9.70;
69224;PMS1003;56333;51.306;17.056;2023-04-15T02:07:59;14.40;9.90;
69224;PMS1003;56333;51.306;17.056;2023-04-15T02:09:29;13.90;9.80;
69224;PMS1003;56333;51.306;17.056;2023-04-15T02:10:57;13.70;10.40;
69224;PMS1003;56333;51.306;17.056;2023-04-15T02:12:27;16.10;10.00;
69224;PMS1003;56333;51.306;17.056;2023-04-15T02:13:56;13.10;9.70;
69224;PMS1003;56333;51.306;17.056;2023-04-15T02:15:26;13.00;9.70;
69224;PMS1003;56333;51.306;17.056;2023-04-15T02:16:55;15.10;8.90;
69224;PMS1003;56333;51.306;17.056;2023-04-15T02:18:31;13.50;9.30;
69224;PMS1003;56333;51.306;17.056;2023-04-15T02:20:01;14.50;9.50;
69224;PMS1003;56333;51.306;17.056;2023-04-15T02:21:31;13.40;9.50;
69224;PMS1003;56333;51.306;17.056;2023-04-15T02:23:00;11.00;8.90;
69224;PMS1003;56333;51.306;17.056;2023-04-15T02:24:33;13.20;10.00;
69224;PMS1003;56333;51.306;17.056;2023-04-15T02:26:02;17.10;10.00;
69224;PMS1003;56333;51.306;17.056;2023-04-15T02:27:31;13.10;9.40;
69224;PMS1003;56333;51.306;17.056;2023-04-15T02:29:00;12.90;9.30;
69224;PMS1003;56333;51.306;17.056;2023-04-15T02:30:29;13.70;10.40;
69224;PMS1003;56333;51.306;17.056;2023-04-15T02:32:01;14.10;9.10;
69224;PMS1003;56333;51.306;17.056;2023-04-15T02:33:30;15.20;9.10;
69224;PMS1003;56333;51.306;17.056;2023-04-15T02:35:04;15.20;9.20;
69224;PMS1003;56333;51.306;17.056;2023-04-15T02:36:34;12.80;10.20;
69224;PMS1003;56333;51.306;17.056;2023-04-15T02:38:05;16.50;10.30;
69224;PMS1003;56333;51.306;17.056;2023-04-15T02:39:34;13.60;9.60;
69224;PMS1003;56333;51.306;17.056;2023-04-15T02:41:06;12.80;9.10;
69224;PMS1003;56333;51.306;17.056;2023-04-15T02:42:35;14.80;9.70;
69224;PMS1003;56333;51.306;17.056;2023-04-15T02:44:04;14.90;9.50;
69224;PMS1003;56333;51.306;17.056;2023-04-15T02:45:34;13.90;9.10;
69224;PMS1003;56333;51.306;17.056;2023-04-15T02:47:04;16.80;10.10;
69224;PMS1003;56333;51.306;17.056;2023-04-15T02:48:33;13.10;9.80;
69224;PMS1003;56333;51.306;17.056;2023-04-15T02:50:03;14.90;11.20;
69224;PMS1003;56333;51.306;17.056;2023-04-15T02:51:34;15.10;10.80;
69224;PMS1003;56333;51.306;17.056;2023-04-15T02:53:03;15.90;13.50;
69224;PMS1003;56333;51.306;17.056;2023-04-15T02:54:33;15.30;12.10;
69224;PMS1003;56333;51.306;17.056;2023-04-15T02:56:02;23.20;18.00;
69224;PMS1003;56333;51.306;17.056;2023-04-15T02:57:32;25.20;16.40;
69224;PMS1003;56333;51.306;17.056;2023-04-15T02:59:06;28.50;17.20;
69224;PMS1003;56333;51.306;17.056;2023-04-15T03:00:34;31.00;16.70;
69224;PMS1003;56333;51.306;17.056;2023-04-15T03:02:03;19.70;12.60;
69224;PMS1003;56333;51.306;17.056;2023-04-15T03:03:33;14.50;10.10;
69224;PMS1003;56333;51.306;17.056;2023-04-15T03:05:02;12.60;9.90;
69224;PMS1003;56333;51.306;17.056;2023-04-15T03:06:32;19.70;11.70;
69224;PMS1003;56333;51.306;17.056;2023-04-15T03:08:02;14.20;10.70;
69224;PMS1003;56333;51.306;17.056;2023-04-15T03:09:31;16.60;11.80;
69224;PMS1003;56333;51.306;17.056;2023-04-15T03:11:01;18.10;13.90;
69224;PMS1003;56333;51.306;17.056;2023-04-15T03:12:31;15.90;11.20;
69224;PMS1003;56333;51.306;17.056;2023-04-15T03:14:00;16.00;12.50;
69224;PMS1003;56333;51.306;17.056;2023-04-15T03:15:33;16.40;11.30;
69224;PMS1003;56333;51.306;17.056;2023-04-15T03:17:02;14.20;10.30;
69224;PMS1003;56333;51.306;17.056;2023-04-15T03:18:31;14.70;10.50;
69224;PMS1003;56333;51.306;17.056;2023-04-15T03:20:02;13.10;10.40;
69224;PMS1003;56333;51.306;17.056;2023-04-15T03:21:32;13.50;10.30;
69224;PMS1003;56333;51.306;17.056;2023-04-15T03:23:01;14.50;9.90;
69224;PMS1003;56333;51.306;17.056;2023-04-15T03:24:29;16.10;11.00;
69224;PMS1003;56333;51.306;17.056;2023-04-15T03:25:59;13.40;10.10;
69224;PMS1003;56333;51.306;17.056;2023-04-15T03:27:30;16.50;11.00;
69224;PMS1003;56333;51.306;17.056;2023-04-15T03:28:59;14.30;10.60;
69224;PMS1003;56333;51.306;17.056;2023-04-15T03:30:29;15.20;10.70;
69224;PMS1003;56333;51.306;17.056;2023-04-15T03:31:58;12.50;9.70;
69224;PMS1003;56333;51.306;17.056;2023-04-15T03:33:30;14.30;10.40;
69224;PMS1003;56333;51.306;17.056;2023-04-15T03:34:59;15.10;10.90;
69224;PMS1003;56333;51.306;17.056;2023-04-15T03:36:29;14.00;9.50;
69224;PMS1003;56333;51.306;17.056;2023-04-15T03:37:59;14.60;10.00;
69224;PMS1003;56333;51.306;17.056;2023-04-15T03:39:28;15.10;11.00;
69224;PMS1003;56333;51.306;17.056;2023-04-15T03:40:57;16.70;10.80;
69224;PMS1003;56333;51.306;17.056;2023-04-15T03:42:26;17.70;11.60;
69224;PMS1003;56333;51.306;17.056;2023-04-15T03:43:56;14.80;10.70;
69224;PMS1003;56333;51.306;17.056;2023-04-15T03:45:25;15.50;11.00;
69224;PMS1003;56333;51.306;17.056;2023-04-15T03:46:54;15.00;10.60;
69224;PMS1003;56333;51.306;17.056;2023-04-15T03:48:23;14.10;10.40;
69224;PMS1003;56333;51.306;17.056;2023-04-15T03:49:52;15.20;10.20;
69224;PMS1003;56333;51.306;17.056;2023-04-15T03:51:21;12.90;9.90;
69224;PMS1003;56333;51.306;17.056;2023-04-15T03:52:50;14.90;9.90;
69224;PMS1003;56333;51.306;17.056;2023-04-15T03:54:19;13.50;10.20;
69224;PMS1003;56333;51.306;17.056;2023-04-15T03:55:48;13.50;9.80;
69224;PMS1003;56333;51.306;17.056;2023-04-15T03:57:17;13.60;10.10;
69224;PMS1003;56333;51.306;17.056;2023-04-15T03:58:47;13.60;10.10;
69224;PMS1003;56333;51.306;17.056;2023-04-15T04:00:16;12.80;10.30;
69224;PMS1003;56333;51.306;17.056;2023-04-15T04:01:45;16.80;11.60;
69224;PMS1003;56333;51.306;17.056;2023-04-15T04:03:14;15.40;9.60;
69224;PMS1003;56333;51.306;17.056;2023-04-15T04:04:43;16.70;12.50;
69224;PMS1003;56333;51.306;17.056;2023-04-15T04:06:13;15.00;10.10;
69224;PMS1003;56333;51.306;17.056;2023-04-15T04:07:42;19.90;13.80;
69224;PMS1003;56333;51.306;17.056;2023-04-15T04:09:10;15.20;10.00;
69224;PMS1003;56333;51.306;17.056;2023-04-15T04:10:40;13.50;9.60;
69224;PMS1003;56333;51.306;17.056;2023-04-15T04:12:10;12.20;9.20;
69224;PMS1003;56333;51.306;17.056;2023-04-15T04:13:39;16.10;10.20;
69224;PMS1003;56333;51.306;17.056;2023-04-15T04:15:10;13.00;9.80;
69224;PMS1003;56333;51.306;17.056;2023-04-15T04:16:39;12.40;9.80;
69224;PMS1003;56333;51.306;17.056;2023-04-15T04:18:08;12.20;8.90;
69224;PMS1003;56333;51.306;17.056;2023-04-15T04:19:37;13.80;9.10;
69224;PMS1003;56333;51.306;17.056;2023-04-15T04:21:06;13.20;9.50;
69224;PMS1003;56333;51.306;17.056;2023-04-15T04:22:39;14.30;9.50;
69224;PMS1003;56333;51.306;17.056;2023-04-15T04:24:08;13.70;9.50;
69224;PMS1003;56333;51.306;17.056;2023-04-15T04:25:37;13.30;9.80;
69224;PMS1003;56333;51.306;17.056;2023-04-15T04:27:06;13.90;9.80;
69224;PMS1003;56333;51.306;17.056;2023-04-15T04:28:35;13.30;9.40;
69224;PMS1003;56333;51.306;17.056;2023-04-15T04:30:07;13.40;9.40;
69224;PMS1003;56333;51.306;17.056;2023-04-15T04:31:37;13.10;9.50;
69224;PMS1003;56333;51.306;17.056;2023-04-15T04:33:07;13.70;9.40;
69224;PMS1003;56333;51.306;17.056;2023-04-15T04:34:36;12.90;9.20;
69224;PMS1003;56333;51.306;17.056;2023-04-15T04:36:06;11.40;8.70;
69224;PMS1003;56333;51.306;17.056;2023-04-15T04:37:35;12.80;9.60;
69224;PMS1003;56333;51.306;17.056;2023-04-15T04:39:04;12.10;7.70;
69224;PMS1003;56333;51.306;17.056;2023-04-15T04:40:34;11.40;7.50;
69224;PMS1003;56333;51.306;17.056;2023-04-15T04:42:04;9.00;6.60;
69224;PMS1003;56333;51.306;17.056;2023-04-15T04:43:34;9.10;6.80;
69224;PMS1003;56333;51.306;17.056;2023-04-15T04:45:03;9.90;7.20;
69224;PMS1003;56333;51.306;17.056;2023-04-15T04:46:33;10.00;6.90;
69224;PMS1003;56333;51.306;17.056;2023-04-15T04:48:03;10.00;6.90;
69224;PMS1003;56333;51.306;17.056;2023-04-15T04:49:33;9.10;6.70;
69224;PMS1003;56333;51.306;17.056;2023-04-15T04:51:03;8.80;6.40;
69224;PMS1003;56333;51.306;17.056;2023-04-15T04:52:32;8.40;6.10;
69224;PMS1003;56333;51.306;17.056;2023-04-15T04:54:01;8.40;5.60;
69224;PMS1003;56333;51.306;17.056;2023-04-15T04:55:31;8.50;5.40;
69224;PMS1003;56333;51.306;17.056;2023-04-15T04:57:02;8.00;5.90;
69224;PMS1003;56333;51.306;17.056;2023-04-15T04:58:32;8.10;5.10;
69224;PMS1003;56333;51.306;17.056;2023-04-15T05:00:01;8.00;5.00;
69224;PMS1003;56333;51.306;17.056;2023-04-15T05:01:32;6.60;4.90;
69224;PMS1003;56333;51.306;17.056;2023-04-15T05:03:01;7.20;4.80;
69224;PMS1003;56333;51.306;17.056;2023-04-15T05:04:30;7.30;4.80;
69224;PMS1003;56333;51.306;17.056;2023-04-15T05:05:59;7.10;4.20;
69224;PMS1003;56333;51.306;17.056;2023-04-15T05:07:30;6.40;4.10;
69224;PMS1003;56333;51.306;17.056;2023-04-15T05:08:59;6.20;4.30;
69224;PMS1003;56333;51.306;17.056;2023-04-15T05:10:29;4.90;3.80;
69224;PMS1003;56333;51.306;17.056;2023-04-15T05:11:57;6.00;4.00;
69224;PMS1003;56333;51.306;17.056;2023-04-15T05:13:27;5.20;3.80;
69224;PMS1003;56333;51.306;17.056;2023-04-15T05:14:56;6.60;4.40;
69224;PMS1003;56333;51.306;17.056;2023-04-15T05:16:24;4.50;3.30;
69224;PMS1003;56333;51.306;17.056;2023-04-15T05:17:54;4.70;3.50;
69224;PMS1003;56333;51.306;17.056;2023-04-15T05:19:23;6.30;4.40;
69224;PMS1003;56333;51.306;17.056;2023-04-15T05:20:53;5.20;3.60;
69224;PMS1003;56333;51.306;17.056;2023-04-15T05:22:22;5.30;3.40;
69224;PMS1003;56333;51.306;17.056;2023-04-15T05:23:51;3.90;3.00;
69224;PMS1003;56333;51.306;17.056;2023-04-15T05:25:20;5.50;3.20;
69224;PMS1003;56333;51.306;17.056;2023-04-15T05:26:49;4.90;3.30;
69224;PMS1003;56333;51.306;17.056;2023-04-15T05:28:18;4.60;3.00;
69224;PMS1003;56333;51.306;17.056;2023-04-15T05:29:47;6.20;3.30;
69224;PMS1003;56333;51.306;17.056;2023-04-15T05:31:16;5.10;3.10;
69224;PMS1003;56333;51.306;17.056;2023-04-15T05:32:46;4.20;2.80;
69224;PMS1003;56333;51.306;17.056;2023-04-15T05:34:14;4.30;2.60;
69224;PMS1003;56333;51.306;17.056;2023-04-15T05:35:44;4.10;2.90;
69224;PMS1003;56333;51.306;17.056;2023-04-15T05:37:13;4.30;3.00;
69224;PMS1003;56333;51.306;17.056;2023-04-15T05:38:42;4.20;3.10;
69224;PMS1003;56333;51.306;17.056;2023-04-15T05:40:12;4.80;3.30;
69224;PMS1003;56333;51.306;17.056;2023-04-15T05:41:41;4.70;3.70;
69224;PMS1003;56333;51.306;17.056;2023-04-15T05:43:11;6.50;3.50;
69224;PMS1003;56333;51.306;17.056;2023-04-15T05:44:40;5.20;3.30;
69224;PMS1003;56333;51.306;17.056;2023-04-15T05:46:09;4.00;3.10;
69224;PMS1003;56333;51.306;17.056;2023-04-15T05:47:38;4.40;3.10;
69224;PMS1003;56333;51.306;17.056;2023-04-15T05:49:08;5.20;3.50;
69224;PMS1003;56333;51.306;17.056;2023-04-15T05:50:37;4.40;3.10;
69224;PMS1003;56333;51.306;17.056;2023-04-15T05:52:08;5.40;3.10;
69224;PMS1003;56333;51.306;17.056;2023-04-15T05:53:37;4.90;3.30;
69224;PMS1003;56333;51.306;17.056;2023-04-15T05:55:08;4.50;3.30;
69224;PMS1003;56333;51.306;17.056;2023-04-15T05:56:37;6.00;3.50;
69224;PMS1003;56333;51.306;17.056;2023-04-15T05:58:07;5.20;3.80;
69224;PMS1003;56333;51.306;17.056;2023-04-15T05:59:36;6.20;4.40;
69224;PMS1003;56333;51.306;17.056;2023-04-15T06:01:07;11.60;6.70;
69224;PMS1003;56333;51.306;17.056;2023-04-15T06:02:35;7.50;4.80;
69224;PMS1003;56333;51.306;17.056;2023-04-15T06:04:04;8.60;4.30;
69224;PMS1003;56333;51.306;17.056;2023-04-15T06:05:34;9.50;5.20;
69224;PMS1003;56333;51.306;17.056;2023-04-15T06:07:03;7.90;4.90;
69224;PMS1003;56333;51.306;17.056;2023-04-15T06:08:33;13.20;7.30;
69224;PMS1003;56333;51.306;17.056;2023-04-15T06:10:02;12.10;6.80;
69224;PMS1003;56333;51.306;17.056;2023-04-15T06:11:33;8.90;5.30;
69224;PMS1003;56333;51.306;17.056;2023-04-15T06:13:02;11.00;6.00;
69224;PMS1003;56333;51.306;17.056;2023-04-15T06:14:31;8.70;5.00;
69224;PMS1003;56333;51.306;17.056;2023-04-15T06:16:01;8.70;5.50;
69224;PMS1003;56333;51.306;17.056;2023-04-15T06:17:30;11.30;6.30;
69224;PMS1003;56333;51.306;17.056;2023-04-15T06:18:59;11.00;6.30;
69224;PMS1003;56333;51.306;17.056;2023-04-15T06:20:27;15.10;7.20;
69224;PMS1003;56333;51.306;17.056;2023-04-15T06:21:58;17.20;8.60;
69224;PMS1003;56333;51.306;17.056;2023-04-15T06:23:28;8.50;5.10;
69224;PMS1003;56333;51.306;17.056;2023-04-15T06:24:57;11.50;6.40;
69224;PMS1003;56333;51.306;17.056;2023-04-15T06:26:26;8.40;5.30;
69224;PMS1003;56333;51.306;17.056;2023-04-15T06:27:56;8.30;5.10;
69224;PMS1003;56333;51.306;17.056;2023-04-15T06:29:24;23.50;9.10;
69224;PMS1003;56333;51.306;17.056;2023-04-15T06:30:53;11.40;7.00;
69224;PMS1003;56333;51.306;17.056;2023-04-15T06:32:22;12.30;6.90;
69224;PMS1003;56333;51.306;17.056;2023-04-15T06:33:51;10.00;5.70;
69224;PMS1003;56333;51.306;17.056;2023-04-15T06:35:20;7.10;5.10;
69224;PMS1003;56333;51.306;17.056;2023-04-15T06:36:49;5.60;4.30;
69224;PMS1003;56333;51.306;17.056;2023-04-15T06:38:19;6.60;4.50;
69224;PMS1003;56333;51.306;17.056;2023-04-15T06:39:48;6.00;4.30;
69224;PMS1003;56333;51.306;17.056;2023-04-15T06:41:18;7.10;4.70;
69224;PMS1003;56333;51.306;17.056;2023-04-15T06:42:48;5.00;3.90;
69224;PMS1003;56333;51.306;17.056;2023-04-15T06:44:17;6.00;4.20;
69224;PMS1003;56333;51.306;17.056;2023-04-15T06:45:45;6.00;4.00;
69224;PMS1003;56333;51.306;17.056;2023-04-15T06:47:15;5.90;4.10;
69224;PMS1003;56333;51.306;17.056;2023-04-15T06:48:44;7.10;4.50;
69224;PMS1003;56333;51.306;17.056;2023-04-15T06:50:14;4.80;3.80;
69224;PMS1003;56333;51.306;17.056;2023-04-15T06:51:44;5.00;3.90;
69224;PMS1003;56333;51.306;17.056;2023-04-15T06:53:14;8.50;4.90;
69224;PMS1003;56333;51.306;17.056;2023-04-15T06:54:43;7.10;5.10;
69224;PMS1003;56333;51.306;17.056;2023-04-15T06:56:12;6.50;4.20;
69224;PMS1003;56333;51.306;17.056;2023-04-15T06:57:41;5.80;4.40;
69224;PMS1003;56333;51.306;17.056;2023-04-15T06:59:11;5.90;4.20;
69224;PMS1003;56333;51.306;17.056;2023-04-15T07:00:40;5.10;3.90;
69224;PMS1003;56333;51.306;17.056;2023-04-15T07:02:12;4.50;3.40;
69224;PMS1003;56333;51.306;17.056;2023-04-15T07:03:41;4.20;3.10;
69224;PMS1003;56333;51.306;17.056;2023-04-15T07:05:11;4.10;2.90;
69224;PMS1003;56333;51.306;17.056;2023-04-15T07:06:40;3.60;2.60;
69224;PMS1003;56333;51.306;17.056;2023-04-15T07:08:11;3.10;2.40;
69224;PMS1003;56333;51.306;17.056;2023-04-15T07:09:40;3.00;2.40;
69224;PMS1003;56333;51.306;17.056;2023-04-15T07:11:09;3.10;2.20;
69224;PMS1003;56333;51.306;17.056;2023-04-15T07:12:38;3.60;2.30;
69224;PMS1003;56333;51.306;17.056;2023-04-15T07:14:08;2.50;2.10;
69224;PMS1003;56333;51.306;17.056;2023-04-15T07:15:37;3.10;2.30;
69224;PMS1003;56333;51.306;17.056;2023-04-15T07:17:05;3.20;2.10;
69224;PMS1003;56333;51.306;17.056;2023-04-15T07:18:34;2.90;2.20;
69224;PMS1003;56333;51.306;17.056;2023-04-15T07:20:04;3.20;2.40;
69224;PMS1003;56333;51.306;17.056;2023-04-15T07:21:36;2.90;2.10;
69224;PMS1003;56333;51.306;17.056;2023-04-15T07:23:05;2.40;2.00;
69224;PMS1003;56333;51.306;17.056;2023-04-15T07:24:34;3.00;2.20;
69224;PMS1003;56333;51.306;17.056;2023-04-15T07:26:03;4.00;2.40;
69224;PMS1003;56333;51.306;17.056;2023-04-15T07:27:32;3.90;2.00;
69224;PMS1003;56333;51.306;17.056;2023-04-15T07:29:03;3.40;1.90;
69224;PMS1003;56333;51.306;17.056;2023-04-15T07:30:32;2.70;1.90;
69224;PMS1003;56333;51.306;17.056;2023-04-15T07:32:02;2.60;1.70;
69224;PMS1003;56333;51.306;17.056;2023-04-15T07:33:31;2.90;1.90;
69224;PMS1003;56333;51.306;17.056;2023-04-15T07:35:00;2.70;2.00;
69224;PMS1003;56333;51.306;17.056;2023-04-15T07:36:29;2.70;2.00;
69224;PMS1003;56333;51.306;17.056;2023-04-15T07:37:58;2.80;1.80;
69224;PMS1003;56333;51.306;17.056;2023-04-15T07:39:28;2.80;1.80;
69224;PMS1003;56333;51.306;17.056;2023-04-15T07:40:57;3.50;1.80;
69224;PMS1003;56333;51.306;17.056;2023-04-15T07:42:26;2.50;1.70;
69224;PMS1003;56333;51.306;17.056;2023-04-15T07:43:56;2.90;1.90;
69224;PMS1003;56333;51.306;17.056;2023-04-15T07:45:25;3.30;1.80;
69224;PMS1003;56333;51.306;17.056;2023-04-15T07:46:54;2.20;1.50;
69224;PMS1003;56333;51.306;17.056;2023-04-15T07:48:23;2.70;1.40;
69224;PMS1003;56333;51.306;17.056;2023-04-15T07:49:53;2.70;1.70;
69224;PMS1003;56333;51.306;17.056;2023-04-15T07:51:22;2.00;1.50;
69224;PMS1003;56333;51.306;17.056;2023-04-15T07:52:51;2.10;1.50;
69224;PMS1003;56333;51.306;17.056;2023-04-15T07:54:21;2.50;1.50;
69224;PMS1003;56333;51.306;17.056;2023-04-15T07:55:50;3.50;1.90;
69224;PMS1003;56333;51.306;17.056;2023-04-15T07:57:19;3.50;1.90;
69224;PMS1003;56333;51.306;17.056;2023-04-15T07:58:49;4.50;1.80;
69224;PMS1003;56333;51.306;17.056;2023-04-15T08:00:18;3.20;1.90;
69224;PMS1003;56333;51.306;17.056;2023-04-15T08:01:48;2.80;1.50;
69224;PMS1003;56333;51.306;17.056;2023-04-15T08:03:17;1.90;1.30;
69224;PMS1003;56333;51.306;17.056;2023-04-15T08:04:47;2.60;1.60;
69224;PMS1003;56333;51.306;17.056;2023-04-15T08:06:16;2.60;1.60;
69224;PMS1003;56333;51.306;17.056;2023-04-15T08:07:45;3.70;1.50;
69224;PMS1003;56333;51.306;17.056;2023-04-15T08:09:14;2.00;1.40;
69224;PMS1003;56333;51.306;17.056;2023-04-15T08:10:43;2.40;1.30;
69224;PMS1003;56333;51.306;17.056;2023-04-15T08:12:12;2.10;1.50;
69224;PMS1003;56333;51.306;17.056;2023-04-15T08:13:41;1.80;1.30;
69224;PMS1003;56333;51.306;17.056;2023-04-15T08:15:12;1.60;1.20;
69224;PMS1003;56333;51.306;17.056;2023-04-15T08:16:42;2.30;1.50;
69224;PMS1003;56333;51.306;17.056;2023-04-15T08:18:11;2.60;1.40;
69224;PMS1003;56333;51.306;17.056;2023-04-15T08:19:40;1.80;1.40;
69224;PMS1003;56333;51.306;17.056;2023-04-15T08:21:09;2.50;1.30;
69224;PMS1003;56333;51.306;17.056;2023-04-15T08:22:37;1.90;1.40;
69224;PMS1003;56333;51.306;17.056;2023-04-15T08:24:07;2.30;1.50;
69224;PMS1003;56333;51.306;17.056;2023-04-15T08:25:38;2.10;1.50;
69224;PMS1003;56333;51.306;17.056;2023-04-15T08:27:06;2.40;1.60;
69224;PMS1003;56333;51.306;17.056;2023-04-15T08:28:35;2.70;1.60;
69224;PMS1003;56333;51.306;17.056;2023-04-15T08:30:07;3.00;1.80;
69224;PMS1003;56333;51.306;17.056;2023-04-15T08:31:38;3.10;1.70;
69224;PMS1003;56333;51.306;17.056;2023-04-15T08:33:08;2.30;1.60;
69224;PMS1003;56333;51.306;17.056;2023-04-15T08:34:38;2.60;1.80;
69224;PMS1003;56333;51.306;17.056;2023-04-15T08:36:07;3.80;1.90;
69224;PMS1003;56333;51.306;17.056;2023-04-15T08:37:37;2.80;1.70;
69224;PMS1003;56333;51.306;17.056;2023-04-15T08:39:06;3.40;1.90;
69224;PMS1003;56333;51.306;17.056;2023-04-15T08:40:43;2.50;1.80;
69224;PMS1003;56333;51.306;17.056;2023-04-15T08:42:18;3.00;1.80;
69224;PMS1003;56333;51.306;17.056;2023-04-15T08:44:02;3.50;2.00;
69224;PMS1003;56333;51.306;17.056;2023-04-15T08:45:32;2.70;1.40;
69224;PMS1003;56333;51.306;17.056;2023-04-15T08:47:02;2.90;1.80;
69224;PMS1003;56333;51.306;17.056;2023-04-15T08:48:34;2.70;1.70;
69224;PMS1003;56333;51.306;17.056;2023-04-15T08:50:10;2.40;1.60;
69224;PMS1003;56333;51.306;17.056;2023-04-15T08:51:40;2.70;1.50;
69224;PMS1003;56333;51.306;17.056;2023-04-15T08:53:10;2.80;1.60;
69224;PMS1003;56333;51.306;17.056;2023-04-15T08:54:41;2.60;1.40;
69224;PMS1003;56333;51.306;17.056;2023-04-15T08:56:10;2.10;1.50;
69224;PMS1003;56333;51.306;17.056;2023-04-15T08:57:40;1.80;1.40;
69224;PMS1003;56333;51.306;17.056;2023-04-15T08:59:09;2.90;1.30;
69224;PMS1003;56333;51.306;17.056;2023-04-15T09:00:38;2.10;1.50;
69224;PMS1003;56333;51.306;17.056;2023-04-15T09:02:07;3.30;1.50;
69224;PMS1003;56333;51.306;17.056;2023-04-15T09:03:37;1.80;1.40;
69224;PMS1003;56333;51.306;17.056;2023-04-15T09:05:08;4.10;1.70;